Latest Weather Observations for Viewbank

IDV60801

Issued at 7:32 am EST Thursday 1 October 2020 (issued every 10 minutes, with the page automatically refreshed every 10 minutes)

About weather observations | Map of weather stations | Latest weather observations for VIC | Other Formats
Station Details ID: 086068 Name: VIEWBANK Lat: -37.74 Lon: 145.10 Height: 66.1 m
Data from the previous 72 hours. | See also: Recent months at Viewbank
Date/Time
EST
Temp
°C
App
Temp
°C
Dew
Point
°C
Rel
Hum
%
Delta-T
°C
Wind Press
QNH
hPa
Press
MSL
hPa
Rain since
9am
mm
Dir  Spd
km/h
Gust
km/h
Spd
kts
Gust
kts
01/07:30am 9.8 7.2 6.3 79 1.6 NW 9 17 5 9 1016.0 1016.0 6.8
01/07:00am 8.7 6.8 7.6 93 0.5 NW 7 11 4 6 1015.7 1015.7 6.8
01/06:30am 7.2 5.2 7.1 99 0.0 NNW 7 11 4 6 1015.1 1015.1 6.8
01/06:00am 8.1 5.6 6.7 91 0.6 NW 9 13 5 7 1014.7 1014.7 6.8
01/05:30am 8.1 6.2 7.5 96 0.3 NNW 7 11 4 6 1014.2 1014.2 6.8
01/05:00am 8.2 6.6 7.8 97 0.2 NW 6 9 3 5 1013.7 1013.7 6.8
01/04:30am 8.6 6.7 7.7 94 0.4 NW 7 11 4 6 1013.3 1013.3 6.8
01/04:00am 8.8 7.5 7.7 93 0.5 WNW 4 7 2 4 1013.1 1013.1 6.8
01/03:30am 8.8 6.9 7.4 91 0.7 WNW 7 11 4 6 1012.9 1012.9 6.8
01/03:00am 9.4 7.1 7.5 88 0.9 WNW 9 15 5 8 1012.5 1012.5 6.8
01/02:30am 10.1 7.9 7.7 85 1.2 W 9 17 5 9 1012.4 1012.4 6.8
01/02:00am 10.4 8.2 8.0 85 1.2 W 9 13 5 7 1012.3 1012.3 6.8
01/01:30am 10.5 8.7 8.1 85 1.2 WNW 7 19 4 10 1012.1 1012.2 6.8
01/01:00am 10.6 7.3 8.2 85 1.2 W 15 22 8 12 1012.0 1012.1 6.8
01/12:30am 10.6 7.4 8.4 86 1.1 W 15 20 8 11 1011.8 1011.9 6.8
01/12:00am 10.7 8.4 9.0 89 0.8 WNW 11 17 6 9 1011.5 1011.6 6.8
 
Date/Time
EST
Temp
°C
App
Temp
°C
Dew
Point
°C
Rel
Hum
%
Delta-T
°C
Wind Press
QNH
hPa
Press
MSL
hPa
Rain since
9am
mm
Dir  Spd
km/h
Gust
km/h
Spd
kts
Gust
kts
30/11:30pm 11.2 9.1 9.6 90 0.8 W 11 17 6 9 1011.3 1011.4 6.8
30/11:00pm 11.0 9.0 10.2 95 0.4 WNW 11 17 6 9 1011.2 1011.3 6.8
30/10:30pm 11.2 7.3 9.6 90 0.8 W 20 35 11 19 1011.0 1011.1 6.8
30/10:06pm 11.4 6.5 11.2 99 0.1 W 28 48 15 26 1010.5 1010.5 6.8
30/10:00pm 12.3 9.7 12.1 99 0.1 W 17 41 9 22 1010.5 1010.5 6.6
30/09:59pm 12.4 10.2 12.2 99 0.1 W 15 41 8 22 1010.4 1010.4 6.6
30/09:30pm 12.7 11.8 12.5 99 0.1 NW 9 15 5 8 1009.8 1009.8 6.6
30/09:00pm 13.0 11.4 12.8 99 0.1 WNW 13 22 7 12 1009.7 1009.7 6.2
30/08:30pm 14.1 12.1 13.9 99 0.1 WNW 17 35 9 19 1009.5 1009.5 5.6
30/08:00pm 14.3 14.3 14.3 100 0.0 WNW 7 11 4 6 1008.7 1008.7 5.4
30/07:30pm 14.4 14.1 14.4 100 0.0 NNW 9 20 5 11 1008.1 1008.1 5.4
30/07:00pm 14.8 13.8 14.6 99 0.1 NNW 13 20 7 11 1007.6 1007.6 1.8
30/06:30pm 15.5 14.5 13.3 87 1.2 NNW 11 19 6 10 1007.2 1007.2 0.4
30/06:00pm 16.7 13.4 11.0 69 3.1 NNW 19 30 10 16 1007.0 1007.0 0.2
30/05:30pm 16.7 13.7 10.8 68 3.2 NNW 17 30 9 16 1006.8 1006.8 0.2
30/05:00pm 16.7 14.2 11.0 69 3.1 NNW 15 28 8 15 1006.8 1006.8 0.2
30/04:30pm 16.9 13.3 10.5 66 3.4 NNW 20 32 11 17 1006.8 1006.8 0.2
30/04:00pm 17.3 13.2 10.2 63 3.8 NNW 22 39 12 21 1007.0 1007.0 0.2
30/03:30pm 17.5 14.4 10.4 63 3.8 N 17 32 9 17 1007.1 1007.1 0.2
30/03:00pm 17.5 14.1 10.4 63 3.8 NNW 19 35 10 19 1007.4 1007.4 0.2
30/02:30pm 17.8 13.3 9.9 60 4.2 NNW 24 43 13 23 1007.5 1007.5 0.2
30/02:00pm 17.7 13.4 9.3 58 4.4 NNW 22 41 12 22 1007.7 1007.7 0.2
30/01:30pm 18.1 13.8 9.2 56 4.7 NNW 22 39 12 21 1008.2 1008.2 0.2
30/01:00pm 17.9 12.6 8.5 54 4.9 NNW 26 48 14 26 1008.6 1008.6 0.2
30/12:58pm 18.1 12.5 8.7 54 4.9 NNW 28 48 15 26 1008.7 1008.7 0.2
30/12:30pm 19.4 15.6 9.9 54 5.1 NNW 20 35 11 19 1008.9 1008.9 0.0
30/12:00pm 18.2 15.3 11.0 63 3.9 N 17 28 9 15 1009.4 1009.4 0.0
30/11:30am 17.1 12.8 9.5 61 4.0 N 22 43 12 23 1010.1 1010.1 0.0
30/11:09am 16.7 11.4 9.9 64 3.6 N 28 48 15 26 1010.4 1010.4 0.0
30/11:00am 16.7 12.4 9.4 62 3.8 N 22 46 12 25 1010.5 1010.5 0.0
30/10:30am 15.7 12.1 10.7 72 2.7 N 20 43 11 23 1011.1 1011.2 0.0
30/10:00am 15.3 11.4 10.9 75 2.3 N 22 43 12 23 1011.6 1011.7 0.0
30/09:30am 15.1 10.8 10.7 75 2.3 N 24 57 13 31 1011.9 1012.0 0.0
30/09:00am 14.3 12.3 11.6 84 1.5 NE 13 30 7 16 1012.3 1012.3 0.6
30/08:30am 13.1 10.4 11.8 92 0.7 N 17 28 9 15 1012.8 1012.8 0.6
30/08:00am 12.5 11.5 12.2 98 0.2 N 9 13 5 7 1013.1 1013.1 0.6
30/07:30am 12.6 10.5 11.0 90 0.8 NNE 13 24 7 13 1013.3 1013.3 0.4
30/07:00am 13.3 11.3 8.8 74 2.3 N 9 17 5 9 1013.3 1013.3 0.0
30/06:30am 13.6 11.9 8.2 70 2.7 NE 7 11 4 6 1013.3 1013.3 0.0
30/06:00am 14.1 11.8 7.4 64 3.3 N 9 13 5 7 1013.0 1013.0 0.0
30/05:30am 14.3 11.7 7.6 64 3.3 N 11 20 6 11 1012.9 1012.9 0.0
30/05:00am 14.7 11.5 7.0 60 3.8 NNW 13 19 7 10 1012.9 1012.9 0.0
30/04:30am 14.0 11.0 7.5 65 3.2 NW 13 22 7 12 1012.9 1012.9 0.0
30/04:00am 13.7 12.7 7.2 65 3.2 E 2 7 1 4 1012.4 1012.4 0.0
30/03:30am 14.3 13.5 6.4 59 3.8 CALM 0 0 0 0 1012.6 1012.6 0.0
30/03:00am 14.7 13.9 6.5 58 4.0 CALM 0 0 0 0 1012.9 1012.9 0.0
30/02:30am 14.9 14.1 6.7 58 4.0 CALM 0 0 0 0 1013.2 1013.2 0.0
30/02:00am 15.5 14.7 6.5 55 4.4 CALM 0 0 0 0 1013.7 1013.7 0.0
30/01:30am 15.6 14.8 6.6 55 4.4 CALM 0 6 0 3 1014.2 1014.2 0.0
30/01:00am 16.1 13.6 6.5 53 4.7 SE 9 15 5 8 1014.5 1014.5 0.0
30/12:30am 16.0 13.6 7.0 55 4.5 SE 9 17 5 9 1014.8 1014.8 0.0
30/12:00am 16.0 13.6 7.0 55 4.4 SE 9 17 5 9 1015.5 1015.5 0.0
 
Date/Time
EST
Temp
°C
App
Temp
°C
Dew
Point
°C
Rel
Hum
%
Delta-T
°C
Wind Press
QNH
hPa
Press
MSL
hPa
Rain since
9am
mm
Dir  Spd
km/h
Gust
km/h
Spd
kts
Gust
kts
29/11:30pm 15.6 13.9 7.4 58 4.1 SSE 6 9 3 5 1016.0 1016.0 0.0
29/11:00pm 15.8 14.1 7.6 58 4.1 SE 6 9 3 5 1016.1 1016.1 0.0
29/10:30pm 15.4 13.7 7.7 60 3.8 SE 6 9 3 5 1016.1 1016.1 0.0
29/10:00pm 15.4 13.2 7.9 61 3.8 SE 9 15 5 8 1016.4 1016.4 0.0
29/09:30pm 14.9 13.6 7.5 61 3.7 SE 4 7 2 4 1016.8 1016.8 0.0
29/09:00pm 14.9 12.9 7.2 60 3.8 SSE 7 13 4 7 1017.0 1017.0 0.0
29/08:30pm 15.5 13.0 6.5 55 4.4 SSE 9 13 5 7 1017.2 1017.2 0.0
29/08:00pm 16.0 13.5 6.7 54 4.6 SSE 9 15 5 8 1017.4 1017.4 0.0
29/07:30pm 15.9 13.9 6.3 53 4.7 SE 6 11 3 6 1017.5 1017.5 0.0
29/07:00pm 16.3 15.4 5.9 50 5.0 CALM 0 6 0 3 1017.4 1017.4 0.0
29/06:30pm 17.1 14.4 5.7 47 5.5 N 9 19 5 10 1017.7 1017.7 0.0
29/06:00pm 16.9 15.1 5.5 47 5.5 NE 4 15 2 8 1017.3 1017.3 0.0
29/05:30pm 17.3 14.7 5.9 47 5.6 ENE 9 20 5 11 1017.2 1017.2 0.0
29/05:00pm 17.9 14.3 4.8 42 6.3 SE 13 26 7 14 1017.2 1017.2 0.0
29/04:30pm 18.3 15.3 5.8 44 6.1 ESE 11 22 6 12 1017.3 1017.3 0.0
29/04:00pm 18.9 15.2 4.7 39 6.8 NE 13 24 7 13 1017.5 1017.5 0.0
29/03:30pm 19.3 16.1 5.0 39 7.0 E 11 24 6 13 1017.4 1017.4 0.0
29/03:00pm 20.6 17.1 5.4 37 7.5 NNE 13 32 7 17 1017.7 1017.7 0.0
29/02:30pm 19.8 16.5 6.5 42 6.7 SE 13 22 7 12 1018.2 1018.2 0.0
29/02:00pm 19.0 15.7 4.7 39 6.9 E 11 19 6 10 1018.9 1018.9 0.0
29/01:30pm 19.5 15.9 5.2 39 7.0 N 13 24 7 13 1019.6 1019.6 0.0
29/01:00pm 19.3 16.3 6.1 42 6.5 ENE 11 20 6 11 1020.4 1020.4 0.0
29/12:30pm 18.1 15.1 6.0 45 6.0 ENE 11 17 6 9 1021.0 1021.0 0.0
29/12:00pm 17.9 15.4 6.7 48 5.6 ENE 9 15 5 8 1021.3 1021.3 0.0
29/11:30am 17.8 15.0 5.1 43 6.1 NE 9 15 5 8 1021.8 1021.8 0.0
29/11:00am 16.7 15.0 8.4 58 4.2 NE 7 13 4 7 1022.4 1022.4 0.0
29/10:30am 14.3 12.8 9.3 72 2.6 E 7 9 4 5 1022.7 1022.7 0.0
29/10:00am 12.0 10.8 10.2 89 0.9 NE 7 9 4 5 1023.0 1023.0 0.0
29/09:30am 9.5 8.1 9.4 99 0.0 E 7 9 4 5 1023.5 1023.5 0.0
29/09:00am 7.5 5.2 7.5 100 0.0 E 9 15 5 8 1024.2 1024.3 0.0
29/08:30am 5.7 3.4 5.7 100 0.0 E 7 11 4 6 1025.1 1025.2 0.0
29/08:00am 4.5 2.1 4.5 100 0.0 ENE 6 9 3 5 1025.5 1025.6 0.0
29/07:30am 3.7 1.0 3.7 100 0.0 ENE 7 11 4 6 1025.1 1025.2 0.0
29/07:00am 2.8 -0.1 2.8 100 0.0 ENE 7 9 4 5 1025.2 1025.3 0.0
29/06:30am 2.0 -1.0 2.0 100 0.0 ENE 7 9 4 5 1025.0 1025.1 0.0
29/06:00am 2.1 -0.3 2.1 100 0.0 N 4 7 2 4 1024.6 1024.7 0.0
29/05:30am 2.2 0.6 2.2 100 0.0 CALM 0 0 0 0 1024.3 1024.4 0.0
29/05:00am 2.1 -0.3 2.1 100 0.0 ENE 4 9 2 5 1024.0 1024.1 0.0
29/04:30am 2.0 -1.4 2.0 100 0.0 ENE 9 9 5 5 1023.8 1023.9 0.0
29/04:00am 2.6 1.0 2.6 100 0.0 CALM 0 0 0 0 1024.0 1024.1 0.0
29/03:30am 2.7 1.1 2.7 100 0.0 CALM 0 0 0 0 1024.1 1024.2 0.0
29/03:00am 3.5 1.7 3.5 100 0.0 ENE 2 6 1 3 1024.1 1024.2 0.0
29/02:30am 3.6 1.1 3.6 100 0.0 E 6 6 3 3 1024.3 1024.4 0.0
29/02:00am 3.9 2.2 3.9 100 0.0 SE 2 6 1 3 1024.8 1024.9 0.0
29/01:30am 4.0 2.7 4.0 100 0.0 CALM 0 0 0 0 1025.5 1025.6 0.0
29/01:00am 4.6 2.6 4.6 100 0.0 SE 4 7 2 4 1025.9 1026.0 0.0
29/12:30am 4.9 3.8 4.9 100 0.0 CALM 0 0 0 0 1026.0 1026.1 0.0
29/12:00am 5.5 3.3 5.4 99 0.0 SSE 6 7 3 4 1026.0 1026.1 0.0
 
Date/Time
EST
Temp
°C
App
Temp
°C
Dew
Point
°C
Rel
Hum
%
Delta-T
°C
Wind Press
QNH
hPa
Press
MSL
hPa
Rain since
9am
mm
Dir  Spd
km/h
Gust
km/h
Spd
kts
Gust
kts
28/11:30pm 6.1 5.2 6.0 99 0.0 CALM 0 0 0 0 1025.9 1026.0 0.0
28/11:00pm 6.8 6.0 6.4 97 0.2 CALM 0 0 0 0 1026.0 1026.1 0.0
28/10:30pm 7.2 6.2 5.7 90 0.7 CALM 0 0 0 0 1026.3 1026.4 0.0
28/10:00pm 7.7 6.0 5.7 87 0.9 ESE 4 9 2 5 1026.5 1026.6 0.0
28/09:30pm 7.9 6.5 5.7 86 1.0 SSE 2 7 1 4 1026.5 1026.6 0.0
28/09:00pm 8.2 6.5 5.7 84 1.1 SSE 4 7 2 4 1026.8 1026.9 0.0
28/08:30pm 8.5 6.4 5.8 83 1.2 SSE 6 11 3 6 1026.8 1026.9 0.0
28/08:00pm 8.9 7.0 6.5 85 1.1 SSW 6 9 3 5 1026.6 1026.7 0.0
28/07:30pm 9.4 7.3 6.5 82 1.4 SW 7 9 4 5 1026.6 1026.7 0.0
28/07:00pm 9.8 7.6 6.0 77 1.7 SSW 7 11 4 6 1026.4 1026.5 0.0
28/06:30pm 10.3 7.7 5.9 74 2.0 S 9 11 5 6 1026.2 1026.3 0.0
28/06:00pm 11.6 8.2 6.1 69 2.6 S 13 17 7 9 1026.2 1026.3 0.0
28/05:30pm 12.2 8.8 6.0 66 2.9 SSW 13 20 7 11 1025.8 1025.9 0.0
28/05:00pm 12.6 8.9 6.2 65 3.0 SSW 15 22 8 12 1025.9 1026.0 0.0
28/04:30pm 13.7 10.3 5.8 59 3.7 SW 13 22 7 12 1026.0 1026.1 0.0
28/04:00pm 13.9 10.0 5.5 57 3.9 SSW 15 20 8 11 1025.8 1025.9 0.0
28/03:30pm 14.5 11.1 6.1 57 4.0 SSW 13 22 7 12 1025.8 1025.9 0.0
28/03:00pm 14.7 10.6 6.3 57 4.0 SW 17 26 9 14 1026.1 1026.2 0.0
28/02:30pm 14.5 10.7 5.6 55 4.2 SSW 15 22 8 12 1026.2 1026.3 0.0
28/02:00pm 14.2 10.8 6.1 58 3.9 SSW 13 22 7 12 1026.6 1026.7 0.0
28/01:30pm 14.9 12.7 5.4 53 4.5 S 6 9 3 5 1026.8 1026.9 0.0
28/01:00pm 14.7 12.6 5.8 55 4.2 SSE 6 13 3 7 1027.3 1027.4 0.0
28/12:30pm 14.0 11.3 5.4 56 4.1 W 9 17 5 9 1027.8 1027.9 0.0
28/12:00pm 13.2 10.4 5.1 58 3.7 SE 9 19 5 10 1028.3 1028.3 0.0
28/11:30am 12.5 9.7 5.2 61 3.4 S 9 17 5 9 1028.5 1028.5 0.0
28/11:00am 11.7 8.4 4.7 62 3.2 SSW 11 19 6 10 1028.9 1028.9 0.0
28/10:30am 12.0 9.7 5.9 66 2.9 SSW 7 13 4 7 1029.3 1029.3 0.0
28/10:00am 11.6 9.4 5.3 65 2.9 SW 6 9 3 5 1029.5 1029.5 0.0
28/09:30am 10.5 8.2 4.9 68 2.5 S 6 13 3 7 1029.5 1029.5 0.0
28/09:00am 9.8 7.6 5.4 74 2.0 ESE 6 9 3 5 1029.3 1029.3 0.0
28/08:30am 8.3 6.5 5.6 83 1.2 E 4 9 2 5 1029.1 1029.1 0.0
28/08:00am 7.0 5.0 6.3 95 0.3 ENE 6 9 3 5 1029.1 1029.1 0.0

Other formats

Comma delimited format used in spreadsheet applications
http://www.bom.gov.au/fwo/IDV60801/IDV60801.95874.axf

JavaScript Object Notation format (JSON) in row-major order
http://www.bom.gov.au/fwo/IDV60801/IDV60801.95874.json

Data quality

Most of these data are generated automatically and are frequently updated. Quality checks on data are not normally performed. It is possible for incorrect values to appear. Refer to information at About Latest Weather Observations and please check the disclaimer before using these data.